createdAt,value
2023-04-01T00:01:50.849Z,1.40
2023-04-01T00:04:18.423Z,1.13
2023-04-01T00:06:46.152Z,1.80
2023-04-01T00:09:13.480Z,0.90
2023-04-01T00:11:41.331Z,1.00
2023-04-01T00:14:08.796Z,1.30
2023-04-01T00:16:36.071Z,1.10
2023-04-01T00:19:04.426Z,1.03
2023-04-01T00:21:31.857Z,1.33
2023-04-01T00:24:00.107Z,1.47
2023-04-01T00:26:27.513Z,1.40
2023-04-01T00:28:54.713Z,1.00
2023-04-01T00:31:21.938Z,1.20
2023-04-01T00:33:49.259Z,1.00
2023-04-01T00:36:19.484Z,1.10
2023-04-01T00:38:47.671Z,1.50
2023-04-01T00:41:16.844Z,1.30
2023-04-01T00:43:46.932Z,1.33
2023-04-01T00:46:14.316Z,1.30
2023-04-01T00:48:53.947Z,0.97
2023-04-01T00:51:28.640Z,1.50
2023-04-01T00:53:59.061Z,1.57
2023-04-01T00:56:31.426Z,1.37
2023-04-01T00:59:03.620Z,1.20
2023-04-01T01:01:32.124Z,1.30
2023-04-01T01:04:00.588Z,1.40
2023-04-01T01:06:54.952Z,1.13
2023-04-01T01:09:48.850Z,1.20
2023-04-01T01:12:56.748Z,1.43
2023-04-01T01:15:51.481Z,1.20
2023-04-01T01:18:27.542Z,1.90
2023-04-01T01:21:21.865Z,1.00
2023-04-01T01:24:17.001Z,2.00
2023-04-01T01:26:56.264Z,1.40
2023-04-01T01:29:29.602Z,1.80
2023-04-01T01:32:16.046Z,1.10
2023-04-01T01:35:11.094Z,1.10
2023-04-01T01:37:41.921Z,1.60
2023-04-01T01:40:12.526Z,1.40
2023-04-01T01:42:49.193Z,1.27
2023-04-01T01:45:20.710Z,1.40
2023-04-01T01:47:50.812Z,1.17
2023-04-01T01:50:19.796Z,1.30
2023-04-01T01:52:46.974Z,1.30
2023-04-01T01:55:31.001Z,1.30
2023-04-01T01:58:03.566Z,1.50
2023-04-01T02:00:31.216Z,1.30
2023-04-01T02:03:00.956Z,1.10
2023-04-01T02:05:31.599Z,1.30
2023-04-01T02:08:15.085Z,1.27
2023-04-01T02:10:47.153Z,1.30
2023-04-01T02:13:26.979Z,1.10
2023-04-01T02:15:58.598Z,1.30
2023-04-01T02:18:26.467Z,1.10
2023-04-01T02:20:54.237Z,1.17
2023-04-01T02:23:21.806Z,1.00
2023-04-01T02:25:49.141Z,1.07
2023-04-01T02:28:21.368Z,1.30
2023-04-01T02:30:50.660Z,1.40
2023-04-01T02:33:19.785Z,1.10
2023-04-01T02:35:47.241Z,1.07
2023-04-01T02:38:16.630Z,0.90
2023-04-01T02:40:50.895Z,0.90
2023-04-01T02:43:19.817Z,0.87
2023-04-01T02:45:47.013Z,1.00
2023-04-01T02:48:14.984Z,0.70
2023-04-01T02:50:42.286Z,0.93
2023-04-01T02:53:09.704Z,1.10
2023-04-01T02:55:36.966Z,1.20
2023-04-01T02:58:04.432Z,1.00
2023-04-01T03:00:31.973Z,0.60
2023-04-01T03:02:59.460Z,0.97
2023-04-01T03:05:26.866Z,0.70
2023-04-01T03:07:54.092Z,0.77
2023-04-01T03:10:21.392Z,0.90
2023-04-01T03:12:48.608Z,0.70
2023-04-01T03:15:16.096Z,0.70
2023-04-01T03:17:44.144Z,0.77
2023-04-01T03:20:12.576Z,0.90
2023-04-01T03:22:42.831Z,0.60
2023-04-01T03:25:11.654Z,0.90
2023-04-01T03:27:39.549Z,0.70
2023-04-01T03:30:08.828Z,0.80
2023-04-01T03:32:42.683Z,0.70
2023-04-01T03:35:11.185Z,0.77
2023-04-01T03:37:38.852Z,0.90
2023-04-01T03:40:06.850Z,0.70
2023-04-01T03:42:34.369Z,0.60
2023-04-01T03:45:01.716Z,1.20
2023-04-01T03:47:29.797Z,1.00
2023-04-01T03:49:57.384Z,0.63
2023-04-01T03:52:24.723Z,0.90
2023-04-01T03:54:52.044Z,0.80
2023-04-01T03:57:19.619Z,0.70
2023-04-01T03:59:47.112Z,0.93
2023-04-01T04:02:14.345Z,1.00
2023-04-01T04:04:42.347Z,0.70
2023-04-01T04:07:09.987Z,1.00
2023-04-01T04:10:01.253Z,0.80
2023-04-01T04:12:28.639Z,0.60
2023-04-01T04:14:56.003Z,0.80
2023-04-01T04:17:24.161Z,0.73
2023-04-01T04:19:51.452Z,0.80
2023-04-01T04:22:18.645Z,1.00
2023-04-01T04:24:45.834Z,0.80
2023-04-01T04:27:14.216Z,0.90
2023-04-01T04:30:08.826Z,0.80
2023-04-01T04:32:37.083Z,0.70
2023-04-01T04:35:07.336Z,1.00
2023-04-01T04:37:35.311Z,0.70
2023-04-01T04:40:02.731Z,1.00
2023-04-01T04:42:30.905Z,0.63
2023-04-01T04:45:04.185Z,0.90
2023-04-01T04:47:32.361Z,0.80
2023-04-01T04:49:59.608Z,1.00
2023-04-01T04:52:26.800Z,1.00
2023-04-01T04:54:53.985Z,0.90
2023-04-01T04:57:21.367Z,0.83
2023-04-01T04:59:54.883Z,0.90
2023-04-01T05:02:42.313Z,0.83
2023-04-01T05:05:09.791Z,0.80
2023-04-01T05:07:37.364Z,1.03
2023-04-01T05:10:05.335Z,1.33
2023-04-01T05:12:36.813Z,1.20
2023-04-01T05:15:06.273Z,0.90
2023-04-01T05:17:33.668Z,0.90
2023-04-01T05:20:01.678Z,0.80
2023-04-01T05:22:30.511Z,1.10
2023-04-01T05:24:57.782Z,0.90
2023-04-01T05:27:25.075Z,1.00
2023-04-01T05:29:52.341Z,1.00
2023-04-01T05:32:46.356Z,0.90
2023-04-01T05:35:13.632Z,1.20
2023-04-01T05:37:40.925Z,0.90
2023-04-01T05:40:08.967Z,1.10
2023-04-01T05:42:38.098Z,1.00
2023-04-01T05:45:06.363Z,0.90
2023-04-01T05:48:02.870Z,1.20
2023-04-01T05:50:34.485Z,1.03
2023-04-01T05:53:02.314Z,1.27
2023-04-01T05:55:29.689Z,1.00
2023-04-01T05:57:57.059Z,1.30
2023-04-01T06:00:24.402Z,0.87
2023-04-01T06:02:53.189Z,1.13
2023-04-01T06:05:23.910Z,1.00
2023-04-01T06:07:58.911Z,1.20
2023-04-01T06:10:45.540Z,1.47
2023-04-01T06:13:35.468Z,1.10
2023-04-01T06:16:05.468Z,1.40
2023-04-01T06:18:39.351Z,1.37
2023-04-01T06:21:13.693Z,1.20
2023-04-01T06:24:01.243Z,1.23
2023-04-01T06:26:52.217Z,1.23
2023-04-01T06:29:51.950Z,1.00
2023-04-01T06:32:19.266Z,1.20
2023-04-01T06:35:01.433Z,1.17
2023-04-01T06:38:07.034Z,1.57
2023-04-01T06:40:40.382Z,1.30
2023-04-01T06:43:45.666Z,1.10
2023-04-01T06:46:48.697Z,1.30
2023-04-01T06:49:52.797Z,1.20
2023-04-01T06:52:56.395Z,1.13
2023-04-01T06:55:54.462Z,1.40
2023-04-01T06:58:49.050Z,1.20
2023-04-01T07:01:27.270Z,1.10
2023-04-01T07:04:06.953Z,1.30
2023-04-01T07:07:11.370Z,1.33
2023-04-01T07:09:53.731Z,0.97
2023-04-01T07:12:32.894Z,1.00
2023-04-01T07:15:29.450Z,1.00
2023-04-01T07:18:03.229Z,0.97
2023-04-01T07:20:36.111Z,1.40
2023-04-01T07:23:08.054Z,1.20
2023-04-01T07:26:24.933Z,1.10
2023-04-01T07:29:21.196Z,1.07
2023-04-01T07:32:13.435Z,1.43
2023-04-01T07:35:08.791Z,1.80
2023-04-01T07:37:44.081Z,0.93
2023-04-01T07:40:53.506Z,1.60
2023-04-01T07:43:48.968Z,1.23
2023-04-01T07:46:42.980Z,1.23
2023-04-01T07:49:16.448Z,1.10
2023-04-01T07:52:04.861Z,1.40
2023-04-01T07:54:56.087Z,1.37
2023-04-01T07:57:35.510Z,0.93
2023-04-01T08:00:16.678Z,0.90
2023-04-01T08:03:26.391Z,0.90
2023-04-01T08:06:04.344Z,1.13
2023-04-01T08:09:05.126Z,1.00
2023-04-01T08:11:44.970Z,1.20
2023-04-01T08:14:49.110Z,1.00
2023-04-01T08:17:49.522Z,1.20
2023-04-01T08:20:38.421Z,0.93
2023-04-01T08:23:11.795Z,1.40
2023-04-01T08:25:57.396Z,0.90
2023-04-01T08:28:47.608Z,1.30
2023-04-01T08:31:27.205Z,0.80
2023-04-01T08:33:56.185Z,0.80
2023-04-01T08:36:34.051Z,1.37
2023-04-01T08:39:19.152Z,0.90
2023-04-01T08:42:19.633Z,0.90
2023-04-01T08:45:30.119Z,2.23
2023-04-01T08:48:24.809Z,0.97
2023-04-01T08:51:38.396Z,1.30
2023-04-01T08:54:22.277Z,0.73
2023-04-01T08:57:13.324Z,0.80
2023-04-01T09:00:26.603Z,3.97
2023-04-01T09:03:24.784Z,0.77
2023-04-01T09:06:16.174Z,0.90
2023-04-01T09:09:20.347Z,0.90
2023-04-01T09:12:08.242Z,1.57
2023-04-01T09:14:55.783Z,0.93
2023-04-01T09:18:00.286Z,1.77
2023-04-01T09:20:53.641Z,1.07
2023-04-01T09:23:59.789Z,0.80
2023-04-01T09:26:53.247Z,1.33
2023-04-01T09:29:46.012Z,0.73
2023-04-01T09:32:16.169Z,0.80
2023-04-01T09:35:22.848Z,0.70
2023-04-01T09:38:15.348Z,0.60
2023-04-01T09:40:58.763Z,1.10
2023-04-01T09:44:23.643Z,0.93
2023-04-01T09:47:27.899Z,0.87
2023-04-01T09:50:15.416Z,1.00
2023-04-01T09:53:00.326Z,1.30
2023-04-01T09:55:52.032Z,1.00
2023-04-01T09:58:47.017Z,0.90
2023-04-01T10:01:53.936Z,0.70
2023-04-01T10:04:46.149Z,0.80
2023-04-01T10:07:57.923Z,1.20
2023-04-01T10:10:40.540Z,1.00
2023-04-01T10:13:18.262Z,0.80
2023-04-01T10:16:17.023Z,0.70
2023-04-01T10:18:57.957Z,0.90
2023-04-01T10:21:50.969Z,0.90
2023-04-01T10:24:37.525Z,0.77
2023-04-01T10:27:33.111Z,0.80
2023-04-01T10:30:26.823Z,0.83
2023-04-01T10:33:03.475Z,0.90
2023-04-01T10:36:08.779Z,0.80
2023-04-01T10:39:08.199Z,0.83
2023-04-01T10:41:51.261Z,0.90
2023-04-01T10:45:32.130Z,0.90
2023-04-01T10:48:32.805Z,0.90
2023-04-01T10:51:02.805Z,0.90
2023-04-01T10:53:44.087Z,1.20
2023-04-01T10:56:29.369Z,0.90
2023-04-01T10:59:33.561Z,0.80
2023-04-01T11:02:58.266Z,0.60
2023-04-01T11:06:22.984Z,0.80
2023-04-01T11:08:59.424Z,1.00
2023-04-01T11:11:56.828Z,0.80
2023-04-01T11:14:54.927Z,0.70
2023-04-01T11:17:54.844Z,1.63
2023-04-01T11:20:50.990Z,0.80
2023-04-01T11:23:18.895Z,0.60
2023-04-01T11:26:05.578Z,0.90
2023-04-01T11:29:27.269Z,0.60
2023-04-01T11:32:12.365Z,0.70
2023-04-01T11:35:17.260Z,0.90
2023-04-01T11:37:56.810Z,1.10
2023-04-01T11:41:14.040Z,0.90
2023-04-01T11:44:25.293Z,0.80
2023-04-01T11:47:25.575Z,0.70
2023-04-01T11:50:17.089Z,0.70
2023-04-01T11:53:07.985Z,0.90
2023-04-01T11:55:41.822Z,0.90
2023-04-01T11:58:34.153Z,1.60
2023-04-01T12:01:20.825Z,0.70
2023-04-01T12:04:17.010Z,1.33
2023-04-01T12:06:53.776Z,1.00
2023-04-01T12:09:51.320Z,1.50
2023-04-01T12:12:33.641Z,0.60
2023-04-01T12:15:14.558Z,0.90
2023-04-01T12:17:45.475Z,0.90
2023-04-01T12:20:55.572Z,1.03
2023-04-01T12:23:31.707Z,0.70
2023-04-01T12:26:47.108Z,0.60
2023-04-01T12:29:32.801Z,0.87
2023-04-01T12:32:23.715Z,0.83
2023-04-01T12:34:59.257Z,0.80
2023-04-01T12:37:41.692Z,1.50
2023-04-01T12:40:41.282Z,1.00
2023-04-01T12:43:27.023Z,0.80
2023-04-01T12:46:15.322Z,1.10
2023-04-01T12:49:09.298Z,1.00
2023-04-01T12:52:09.153Z,1.40
2023-04-01T12:55:04.935Z,0.70
2023-04-01T12:57:50.187Z,1.20
2023-04-01T13:00:39.691Z,0.80
2023-04-01T13:03:28.760Z,0.80
2023-04-01T13:06:21.621Z,1.60
2023-04-01T13:08:53.048Z,1.20
2023-04-01T13:11:47.525Z,1.10
2023-04-01T13:14:29.143Z,1.00
2023-04-01T13:17:16.526Z,1.00
2023-04-01T13:20:01.747Z,0.70
2023-04-01T13:22:53.010Z,1.20
2023-04-01T13:25:36.326Z,2.47
2023-04-01T13:28:27.311Z,1.20
2023-04-01T13:31:07.505Z,0.80
2023-04-01T13:33:54.707Z,1.00
2023-04-01T13:36:36.187Z,0.87
2023-04-01T13:39:08.886Z,1.23
2023-04-01T13:41:54.659Z,0.90
2023-04-01T13:44:45.872Z,0.80
2023-04-01T13:47:25.447Z,1.00
2023-04-01T13:50:13.822Z,1.00
2023-04-01T13:52:49.828Z,0.83
2023-04-01T13:55:45.875Z,0.80
2023-04-01T13:58:19.115Z,1.00
2023-04-01T14:01:07.627Z,0.90
2023-04-01T14:03:43.572Z,1.00
2023-04-01T14:06:23.900Z,1.07
2023-04-01T14:09:15.906Z,1.30
2023-04-01T14:12:04.717Z,0.90
2023-04-01T14:14:51.940Z,1.00
2023-04-01T14:17:37.314Z,1.37
2023-04-01T14:20:26.127Z,0.97
2023-04-01T14:23:17.782Z,0.93
2023-04-01T14:26:14.163Z,1.00
2023-04-01T14:28:56.175Z,1.30
2023-04-01T14:31:31.767Z,0.97
2023-04-01T14:34:23.728Z,1.23
2023-04-01T14:36:53.857Z,3.50
2023-04-01T14:39:41.242Z,4.53
2023-04-01T14:42:30.460Z,2.20
2023-04-01T14:45:28.732Z,2.13
2023-04-01T14:47:59.814Z,2.90
2023-04-01T14:50:41.856Z,0.93
2023-04-01T14:53:27.265Z,10.33
2023-04-01T14:55:57.436Z,1.10
2023-04-01T14:58:42.769Z,7.53
2023-04-01T15:01:18.819Z,1.23
2023-04-01T15:04:05.199Z,0.90
2023-04-01T15:06:35.387Z,2.13
2023-04-01T15:09:22.666Z,1.50
2023-04-01T15:12:19.190Z,1.53
2023-04-01T15:15:07.882Z,0.90
2023-04-01T15:17:41.640Z,1.03
2023-04-01T15:20:50.632Z,0.80
2023-04-01T15:23:23.779Z,0.87
2023-04-01T15:26:06.625Z,2.53
2023-04-01T15:28:37.256Z,1.40
2023-04-01T15:31:27.767Z,4.23
2023-04-01T15:34:18.695Z,1.00
2023-04-01T15:37:02.052Z,1.40
2023-04-01T15:39:40.710Z,0.90
2023-04-01T15:42:13.619Z,1.17
2023-04-01T15:45:14.136Z,1.33
2023-04-01T15:47:46.713Z,1.00
2023-04-01T15:50:28.917Z,0.80
2023-04-01T15:53:18.442Z,1.00
2023-04-01T15:56:10.687Z,1.00
2023-04-01T15:58:59.193Z,0.73
2023-04-01T16:02:16.752Z,1.07
2023-04-01T16:05:02.041Z,0.80
2023-04-01T16:07:44.620Z,0.80
2023-04-01T16:10:22.680Z,2.43
2023-04-01T16:13:47.344Z,3.20
2023-04-01T16:16:29.482Z,3.10
2023-04-01T16:19:17.633Z,2.80
2023-04-01T16:21:55.920Z,0.83
2023-04-01T16:24:32.815Z,1.00
2023-04-01T16:27:15.608Z,8.70
2023-04-01T16:30:17.349Z,1.00
2023-04-01T16:33:00.684Z,1.00
2023-04-01T16:35:43.036Z,7.03
2023-04-01T16:38:21.073Z,5.70
2023-04-01T16:40:51.707Z,2.77
2023-04-01T16:43:39.792Z,1.40
2023-04-01T16:46:27.413Z,2.03
2023-04-01T16:49:12.836Z,0.90
2023-04-01T16:51:52.207Z,0.90
2023-04-01T16:54:22.355Z,1.10
2023-04-01T16:57:02.794Z,0.90
2023-04-01T16:59:36.858Z,1.30
2023-04-01T17:02:13.325Z,1.00
2023-04-01T17:04:49.299Z,1.00
2023-04-01T17:07:37.645Z,1.00
2023-04-01T17:10:19.661Z,1.00
2023-04-01T17:13:09.357Z,1.90
2023-04-01T17:15:47.596Z,0.90
2023-04-01T17:18:23.824Z,1.00
2023-04-01T17:21:06.384Z,1.77
2023-04-01T17:23:59.956Z,1.10
2023-04-01T17:26:38.354Z,1.20
2023-04-01T17:29:38.208Z,0.80
2023-04-01T17:32:42.617Z,1.30
2023-04-01T17:35:22.325Z,1.90
2023-04-01T17:38:20.583Z,0.90
2023-04-01T17:41:11.678Z,1.10
2023-04-01T17:43:53.317Z,1.20
2023-04-01T17:46:32.784Z,1.30
2023-04-01T17:49:29.456Z,1.20
2023-04-01T17:52:18.169Z,1.50
2023-04-01T17:55:04.126Z,1.10
2023-04-01T17:57:37.391Z,1.27
2023-04-01T18:00:21.733Z,1.20
2023-04-01T18:03:18.128Z,1.57
2023-04-01T18:06:17.582Z,1.33
2023-04-01T18:08:59.827Z,1.10
2023-04-01T18:11:40.270Z,1.40
2023-04-01T18:14:35.828Z,2.10
2023-04-01T18:17:35.081Z,1.20
2023-04-01T18:20:29.864Z,2.07
2023-04-01T18:23:15.660Z,1.43
2023-04-01T18:25:49.018Z,1.47
2023-04-01T18:28:23.062Z,1.67
2023-04-01T18:30:58.612Z,5.27
2023-04-01T18:33:35.518Z,1.87
2023-04-01T18:36:24.829Z,1.40
2023-04-01T18:38:55.327Z,1.00
2023-04-01T18:41:25.241Z,2.53
2023-04-01T18:44:09.133Z,1.00
2023-04-01T18:47:12.697Z,1.53
2023-04-01T18:49:46.597Z,9.70
2023-04-01T18:52:36.888Z,18.13
2023-04-01T18:55:04.046Z,4.37
2023-04-01T18:57:54.447Z,1.53
2023-04-01T19:00:26.857Z,7.87
2023-04-01T19:03:07.249Z,4.93
2023-04-01T19:05:39.189Z,26.37
2023-04-01T19:08:21.357Z,30.67
2023-04-01T19:11:33.168Z,19.77
2023-04-01T19:14:07.282Z,8.37
2023-04-01T19:17:10.196Z,19.93
2023-04-01T19:19:40.364Z,5.00
2023-04-01T19:22:21.974Z,8.43
2023-04-01T19:25:20.602Z,10.30
2023-04-01T19:28:27.056Z,21.43
2023-04-01T19:31:03.477Z,24.00
2023-04-01T19:33:41.877Z,4.30
2023-04-01T19:36:33.682Z,5.20
2023-04-01T19:39:35.603Z,12.87
2023-04-01T19:42:14.916Z,7.87
2023-04-01T19:44:42.071Z,2.87
2023-04-01T19:47:25.355Z,15.90
2023-04-01T19:50:11.511Z,5.53
2023-04-01T19:52:44.234Z,11.77
2023-04-01T19:55:30.264Z,8.27
2023-04-01T19:58:10.294Z,7.47
2023-04-01T20:00:52.692Z,1.93
2023-04-01T20:03:48.540Z,3.57
2023-04-01T20:06:36.414Z,6.53
2023-04-01T20:09:33.708Z,1.67
2023-04-01T20:12:19.030Z,1.97
2023-04-01T20:14:55.701Z,5.17
2023-04-01T20:17:24.106Z,8.73
2023-04-01T20:20:09.785Z,1.67
2023-04-01T20:22:46.009Z,1.20
2023-04-01T20:25:22.770Z,1.60
2023-04-01T20:27:55.816Z,1.00
2023-04-01T20:30:34.941Z,1.00
2023-04-01T20:33:20.216Z,1.40
2023-04-01T20:36:22.609Z,1.10
2023-04-01T20:38:58.872Z,1.10
2023-04-01T20:41:34.867Z,1.30
2023-04-01T20:44:20.966Z,1.30
2023-04-01T20:47:19.455Z,1.50
2023-04-01T20:50:01.452Z,1.80
2023-04-01T20:52:43.556Z,1.30
2023-04-01T20:55:22.478Z,1.10
2023-04-01T20:58:11.662Z,1.10
2023-04-01T21:00:44.266Z,1.00
2023-04-01T21:03:27.035Z,1.23
2023-04-01T21:06:04.451Z,1.10
2023-04-01T21:08:37.860Z,1.30
2023-04-01T21:11:26.511Z,1.10
2023-04-01T21:14:22.968Z,1.00
2023-04-01T21:16:59.359Z,1.17
2023-04-01T21:19:41.889Z,1.00
2023-04-01T21:22:16.637Z,1.03
2023-04-01T21:24:52.612Z,1.10
2023-04-01T21:27:44.005Z,1.17
2023-04-01T21:30:31.316Z,1.10
2023-04-01T21:33:53.828Z,1.10
2023-04-01T21:36:26.942Z,1.10
2023-04-01T21:39:22.300Z,1.10
2023-04-01T21:42:28.556Z,1.00
2023-04-01T21:45:31.327Z,1.00
2023-04-01T21:47:58.593Z,1.10
2023-04-01T21:50:48.260Z,1.10
2023-04-01T21:53:45.867Z,1.10
2023-04-01T21:56:38.058Z,1.00
2023-04-01T21:59:23.732Z,1.20
2023-04-01T22:01:53.725Z,1.13
2023-04-01T22:04:36.092Z,1.20
2023-04-01T22:07:18.900Z,1.00
2023-04-01T22:10:21.399Z,0.90
2023-04-01T22:13:18.327Z,1.20
2023-04-01T22:15:56.696Z,1.03
2023-04-01T22:18:35.534Z,1.00
2023-04-01T22:21:24.092Z,1.10
2023-04-01T22:24:03.080Z,1.10
2023-04-01T22:26:50.638Z,1.07
2023-04-01T22:29:36.082Z,1.30
2023-04-01T22:32:25.692Z,1.00
2023-04-01T22:35:13.711Z,1.00
2023-04-01T22:38:05.750Z,1.10
2023-04-01T22:40:53.314Z,1.00
2023-04-01T22:43:40.571Z,1.23
2023-04-01T22:46:20.136Z,1.23
2023-04-01T22:48:54.931Z,1.00
2023-04-01T22:51:45.691Z,1.30
2023-04-01T22:54:23.583Z,1.57
2023-04-01T22:57:01.802Z,0.97
2023-04-01T22:59:53.980Z,0.90
2023-04-01T23:02:34.572Z,0.90
2023-04-01T23:05:06.206Z,1.00
2023-04-01T23:08:15.297Z,0.90
2023-04-01T23:10:53.663Z,1.00
2023-04-01T23:13:28.166Z,1.00
2023-04-01T23:15:56.667Z,0.90
2023-04-01T23:18:52.758Z,0.97
2023-04-01T23:21:27.401Z,1.10
2023-04-01T23:24:21.381Z,0.90
2023-04-01T23:27:06.505Z,1.00
2023-04-01T23:29:37.581Z,0.80
2023-04-01T23:32:05.525Z,1.30
2023-04-01T23:34:35.798Z,1.00
2023-04-01T23:37:06.302Z,1.30
2023-04-01T23:39:40.574Z,0.90
2023-04-01T23:42:21.905Z,1.00
2023-04-01T23:44:58.505Z,1.60
2023-04-01T23:47:31.525Z,1.00
2023-04-01T23:50:04.635Z,1.03
2023-04-01T23:52:37.337Z,1.50
2023-04-01T23:55:15.023Z,1.50
2023-04-01T23:57:42.266Z,1.20
